createdAt,value
2023-03-31T00:01:33.865Z,4.10
2023-03-31T00:04:24.183Z,3.70
2023-03-31T00:07:14.981Z,4.60
2023-03-31T00:10:17.293Z,4.83
2023-03-31T00:13:06.643Z,4.80
2023-03-31T00:15:57.997Z,4.10
2023-03-31T00:18:47.647Z,4.50
2023-03-31T00:21:36.995Z,4.87
2023-03-31T00:24:25.643Z,4.30
2023-03-31T00:27:15.723Z,4.50
2023-03-31T00:30:04.498Z,3.40
2023-03-31T00:32:53.332Z,3.43
2023-03-31T00:35:41.867Z,4.20
2023-03-31T00:38:30.986Z,3.00
2023-03-31T00:41:19.477Z,3.70
2023-03-31T00:44:14.438Z,3.03
2023-03-31T00:47:04.897Z,2.90
2023-03-31T00:49:56.921Z,2.73
2023-03-31T00:52:46.939Z,2.97
2023-03-31T00:55:38.631Z,2.80
2023-03-31T00:58:28.517Z,3.00
2023-03-31T01:01:24.517Z,3.20
2023-03-31T01:04:16.771Z,2.67
2023-03-31T01:07:09.688Z,3.50
2023-03-31T01:10:00.279Z,3.20
2023-03-31T01:12:51.406Z,2.53
2023-03-31T01:15:40.283Z,2.47
2023-03-31T01:18:30.622Z,1.80
2023-03-31T01:21:59.832Z,2.37
2023-03-31T01:25:34.603Z,2.30
2023-03-31T01:28:29.927Z,2.13
2023-03-31T01:31:43.693Z,2.47
2023-03-31T01:35:06.036Z,2.30
2023-03-31T01:38:20.002Z,1.50
2023-03-31T01:41:18.646Z,2.27
2023-03-31T01:44:16.419Z,2.30
2023-03-31T01:47:10.011Z,2.10
2023-03-31T01:50:02.485Z,1.90
2023-03-31T01:52:54.287Z,2.23
2023-03-31T01:55:45.054Z,2.47
2023-03-31T01:58:38.741Z,2.43
2023-03-31T02:01:31.477Z,2.10
2023-03-31T02:04:22.371Z,3.30
2023-03-31T02:07:15.132Z,2.17
2023-03-31T02:10:06.857Z,2.67
2023-03-31T02:12:56.536Z,2.53
2023-03-31T02:15:49.394Z,3.40
2023-03-31T02:18:41.653Z,3.07
2023-03-31T02:21:30.726Z,2.87
2023-03-31T02:24:20.805Z,3.90
2023-03-31T02:27:14.728Z,2.87
2023-03-31T02:30:04.083Z,3.10
2023-03-31T02:32:53.913Z,3.50
2023-03-31T02:35:42.407Z,2.77
2023-03-31T02:38:33.867Z,2.97
2023-03-31T02:41:22.429Z,2.57
2023-03-31T02:44:11.152Z,2.97
2023-03-31T02:46:59.639Z,2.60
2023-03-31T02:49:52.117Z,2.70
2023-03-31T02:52:47.817Z,3.10
2023-03-31T02:55:48.754Z,2.73
2023-03-31T02:58:54.043Z,2.87
2023-03-31T03:01:51.219Z,3.57
2023-03-31T03:04:55.797Z,2.83
2023-03-31T03:07:48.694Z,3.33
2023-03-31T03:10:43.696Z,3.40
2023-03-31T03:13:36.649Z,3.50
2023-03-31T03:16:27.254Z,3.80
2023-03-31T03:19:20.517Z,3.10
2023-03-31T03:22:10.653Z,3.00
2023-03-31T03:24:59.150Z,3.10
2023-03-31T03:27:47.812Z,3.87
2023-03-31T03:30:36.375Z,3.83
2023-03-31T03:33:25.138Z,3.33
2023-03-31T03:36:14.248Z,3.80
2023-03-31T03:39:04.961Z,3.53
2023-03-31T03:41:53.443Z,3.00
2023-03-31T03:44:41.871Z,3.30
2023-03-31T03:47:30.691Z,3.50
2023-03-31T03:50:19.194Z,3.73
2023-03-31T03:53:07.659Z,3.70
2023-03-31T03:55:59.134Z,4.00
2023-03-31T03:58:47.594Z,3.30
2023-03-31T04:01:36.018Z,3.07
2023-03-31T04:04:24.799Z,3.00
2023-03-31T04:07:13.295Z,3.83
2023-03-31T04:10:01.820Z,3.80
2023-03-31T04:12:51.712Z,3.50
2023-03-31T04:15:40.295Z,3.30
2023-03-31T04:18:28.832Z,3.40
2023-03-31T04:21:22.905Z,3.63
2023-03-31T04:27:10.596Z,3.37
2023-03-31T04:30:00.468Z,3.10
2023-03-31T04:32:50.688Z,3.80
2023-03-31T04:35:49.372Z,4.23
2023-03-31T04:38:37.869Z,3.37
2023-03-31T04:41:27.516Z,3.40
2023-03-31T04:44:16.036Z,4.07
2023-03-31T04:47:06.917Z,4.87
2023-03-31T04:49:55.435Z,4.40
2023-03-31T04:52:44.064Z,3.57
2023-03-31T04:55:32.746Z,4.30
2023-03-31T04:58:21.367Z,3.73
2023-03-31T05:01:10.165Z,3.57
2023-03-31T05:04:00.393Z,3.60
2023-03-31T05:06:48.928Z,4.23
2023-03-31T05:09:37.452Z,4.07
2023-03-31T05:12:26.139Z,4.30
2023-03-31T05:15:14.587Z,3.77
2023-03-31T05:18:03.166Z,4.23
2023-03-31T05:20:53.011Z,3.97
2023-03-31T05:23:41.584Z,4.70
2023-03-31T05:26:30.095Z,4.50
2023-03-31T05:29:18.681Z,4.30
2023-03-31T05:32:07.234Z,4.67
2023-03-31T05:34:57.818Z,4.43
2023-03-31T05:37:47.683Z,4.40
2023-03-31T05:40:36.150Z,4.80
2023-03-31T05:43:24.880Z,5.30
2023-03-31T05:46:13.967Z,4.80
2023-03-31T05:49:02.764Z,5.03
2023-03-31T05:51:51.774Z,5.80
2023-03-31T05:54:42.792Z,5.07
2023-03-31T05:57:31.544Z,5.47
2023-03-31T06:00:20.885Z,5.73
2023-03-31T06:03:09.457Z,6.13
2023-03-31T06:05:58.716Z,5.80
2023-03-31T06:08:47.886Z,5.80
2023-03-31T06:11:37.762Z,6.37
2023-03-31T06:14:26.583Z,6.20
2023-03-31T06:17:15.089Z,5.80
2023-03-31T06:20:13.102Z,6.30
2023-03-31T06:23:12.899Z,6.70
2023-03-31T06:26:03.207Z,3.97
2023-03-31T06:28:53.017Z,4.57
2023-03-31T06:31:41.478Z,4.40
2023-03-31T06:34:30.157Z,3.87
2023-03-31T06:37:18.641Z,5.60
2023-03-31T06:40:08.764Z,6.17
2023-03-31T06:42:57.195Z,5.30
2023-03-31T06:45:47.126Z,6.03
2023-03-31T06:48:35.696Z,5.37
2023-03-31T06:51:24.257Z,5.37
2023-03-31T06:54:12.761Z,4.87
2023-03-31T06:57:01.350Z,5.27
2023-03-31T06:59:49.884Z,4.13
2023-03-31T07:02:39.819Z,4.40
2023-03-31T07:05:28.901Z,4.13
2023-03-31T07:08:18.539Z,4.07
2023-03-31T07:11:07.357Z,3.93
2023-03-31T07:13:56.003Z,3.60
2023-03-31T07:16:44.623Z,3.00
2023-03-31T07:19:37.886Z,2.90
2023-03-31T07:22:26.648Z,3.00
2023-03-31T07:25:16.563Z,2.80
2023-03-31T07:28:05.602Z,2.90
2023-03-31T07:30:54.088Z,2.80
2023-03-31T07:33:42.678Z,2.63
2023-03-31T07:36:32.997Z,2.20
2023-03-31T07:39:21.675Z,2.60
2023-03-31T07:42:10.438Z,2.50
2023-03-31T07:44:58.942Z,2.40
2023-03-31T07:47:47.919Z,2.70
2023-03-31T07:50:36.713Z,2.60
2023-03-31T07:53:26.650Z,1.90
2023-03-31T07:56:16.891Z,2.40
2023-03-31T07:59:05.486Z,2.93
2023-03-31T08:01:54.318Z,2.80
2023-03-31T08:04:43.594Z,2.57
2023-03-31T08:07:34.632Z,2.20
2023-03-31T08:10:26.693Z,2.30
2023-03-31T08:13:15.391Z,2.00
2023-03-31T08:16:05.100Z,2.57
2023-03-31T08:18:53.792Z,2.47
2023-03-31T08:21:42.479Z,1.90
2023-03-31T08:24:31.117Z,2.00
2023-03-31T08:27:21.006Z,2.00
2023-03-31T08:30:11.954Z,2.20
2023-03-31T08:33:00.514Z,2.80
2023-03-31T08:35:49.171Z,2.30
2023-03-31T08:38:39.056Z,2.97
2023-03-31T08:41:50.344Z,2.47
2023-03-31T08:44:44.763Z,3.13
2023-03-31T08:47:35.087Z,2.20
2023-03-31T08:50:26.696Z,2.30
2023-03-31T08:53:21.589Z,2.03
2023-03-31T08:56:16.453Z,2.80
2023-03-31T08:59:04.934Z,2.03
2023-03-31T09:01:59.869Z,2.43
2023-03-31T09:05:08.731Z,2.17
2023-03-31T09:08:02.400Z,3.20
2023-03-31T09:10:54.956Z,2.83
2023-03-31T09:13:58.393Z,3.27
2023-03-31T09:16:50.543Z,2.43
2023-03-31T09:19:43.748Z,2.43
2023-03-31T09:22:33.903Z,1.80
2023-03-31T09:25:25.257Z,2.50
2023-03-31T09:28:17.215Z,3.00
2023-03-31T09:31:12.532Z,2.10
2023-03-31T09:34:02.483Z,2.50
2023-03-31T09:36:52.376Z,2.40
2023-03-31T09:39:41.437Z,3.03
2023-03-31T09:42:29.976Z,2.70
2023-03-31T09:45:20.473Z,2.47
2023-03-31T09:48:13.699Z,2.20
2023-03-31T09:51:04.580Z,2.67
2023-03-31T09:53:56.641Z,3.10
2023-03-31T09:56:52.829Z,2.97
2023-03-31T09:59:41.696Z,2.30
2023-03-31T10:02:41.472Z,2.00
2023-03-31T10:05:32.159Z,2.93
2023-03-31T10:08:25.091Z,3.20
2023-03-31T10:11:15.604Z,2.47
2023-03-31T10:13:49.234Z,2.90
2023-03-31T10:16:23.446Z,2.87
2023-03-31T10:18:51.808Z,3.43
2023-03-31T10:21:23.195Z,2.53
2023-03-31T10:23:52.490Z,2.60
2023-03-31T10:26:24.217Z,2.53
2023-03-31T10:28:55.146Z,2.23
2023-03-31T10:31:27.520Z,2.30
2023-03-31T10:33:56.177Z,2.30
2023-03-31T10:36:27.573Z,2.57
2023-03-31T10:38:56.655Z,2.10
2023-03-31T10:41:28.446Z,3.07
2023-03-31T10:43:57.622Z,2.40
2023-03-31T10:46:42.058Z,2.20
2023-03-31T10:49:17.188Z,2.90
2023-03-31T10:51:53.718Z,2.47
2023-03-31T10:54:21.903Z,1.97
2023-03-31T10:56:54.381Z,2.20
2023-03-31T10:59:42.174Z,1.80
2023-03-31T11:02:34.803Z,1.50
2023-03-31T11:05:10.634Z,1.67
2023-03-31T11:07:48.159Z,1.50
2023-03-31T11:10:25.695Z,1.60
2023-03-31T11:12:59.441Z,1.47
2023-03-31T11:15:31.767Z,1.30
2023-03-31T11:18:13.000Z,1.40
2023-03-31T11:20:46.441Z,1.60
2023-03-31T11:23:21.107Z,1.30
2023-03-31T11:25:54.314Z,1.50
2023-03-31T11:28:37.897Z,1.50
2023-03-31T11:31:15.535Z,1.00
2023-03-31T11:34:03.264Z,1.40
2023-03-31T11:36:52.044Z,1.10
2023-03-31T11:39:30.007Z,1.20
2023-03-31T11:42:13.571Z,1.30
2023-03-31T11:44:52.871Z,1.37
2023-03-31T11:47:23.997Z,1.20
2023-03-31T11:49:54.457Z,1.20
2023-03-31T11:52:27.151Z,1.50
2023-03-31T11:55:16.921Z,1.40
2023-03-31T11:58:08.867Z,1.37
2023-03-31T12:01:03.329Z,1.40
2023-03-31T12:03:57.782Z,1.33
2023-03-31T12:06:47.600Z,1.50
2023-03-31T12:09:39.379Z,1.37
2023-03-31T12:12:30.942Z,1.40
2023-03-31T12:15:22.822Z,1.63
2023-03-31T12:18:16.155Z,1.40
2023-03-31T12:21:06.016Z,1.67
2023-03-31T12:23:54.545Z,1.20
2023-03-31T12:26:51.371Z,1.53
2023-03-31T12:29:41.917Z,1.30
2023-03-31T12:32:32.576Z,1.30
2023-03-31T12:35:24.870Z,2.03
2023-03-31T12:38:23.133Z,1.23
2023-03-31T12:41:17.675Z,1.60
2023-03-31T12:44:15.542Z,2.10
2023-03-31T12:47:23.264Z,1.70
2023-03-31T12:50:29.991Z,2.50
2023-03-31T12:53:25.038Z,1.30
2023-03-31T12:56:13.523Z,1.43
2023-03-31T12:59:20.094Z,1.57
2023-03-31T13:02:27.656Z,1.73
2023-03-31T13:05:51.570Z,1.20
2023-03-31T13:08:54.654Z,1.33
2023-03-31T13:11:47.888Z,1.10
2023-03-31T13:14:38.821Z,1.60
2023-03-31T13:17:32.306Z,1.53
2023-03-31T13:20:37.591Z,1.40
2023-03-31T13:23:28.696Z,1.20
2023-03-31T13:26:39.887Z,1.30
2023-03-31T13:29:40.875Z,1.47
2023-03-31T13:32:29.713Z,1.27
2023-03-31T13:35:20.442Z,1.60
2023-03-31T13:38:14.125Z,1.57
2023-03-31T13:41:11.651Z,1.50
2023-03-31T13:44:14.864Z,2.07
2023-03-31T13:47:35.959Z,1.70
2023-03-31T13:50:51.928Z,1.70
2023-03-31T13:53:30.041Z,1.43
2023-03-31T13:56:16.692Z,1.37
2023-03-31T13:59:30.414Z,1.60
2023-03-31T14:02:40.614Z,1.33
2023-03-31T14:05:35.424Z,1.50
2023-03-31T14:08:31.120Z,1.20
2023-03-31T14:11:24.276Z,1.30
2023-03-31T14:14:14.458Z,1.67
2023-03-31T14:17:03.809Z,1.50
2023-03-31T14:20:08.814Z,1.67
2023-03-31T14:23:20.103Z,1.57
2023-03-31T14:26:16.140Z,1.67
2023-03-31T14:29:12.616Z,1.60
2023-03-31T14:32:07.481Z,1.10
2023-03-31T14:35:23.721Z,1.97
2023-03-31T14:38:15.915Z,1.40
2023-03-31T14:41:04.853Z,1.20
2023-03-31T14:43:54.096Z,1.47
2023-03-31T14:46:44.364Z,1.47
2023-03-31T14:49:36.840Z,1.80
2023-03-31T14:52:26.019Z,1.50
2023-03-31T14:55:16.298Z,1.43
2023-03-31T14:58:05.116Z,1.40
2023-03-31T15:00:54.327Z,1.60
2023-03-31T15:03:24.345Z,1.60
2023-03-31T15:06:12.049Z,1.40
2023-03-31T15:08:59.861Z,1.63
2023-03-31T15:11:48.558Z,1.63
2023-03-31T15:14:41.107Z,1.40
2023-03-31T15:17:32.472Z,1.30
2023-03-31T15:20:35.150Z,1.93
2023-03-31T15:23:06.698Z,1.80
2023-03-31T15:25:39.238Z,1.73
2023-03-31T15:28:08.627Z,1.50
2023-03-31T15:30:37.648Z,1.60
2023-03-31T15:35:58.322Z,1.60
2023-03-31T15:38:28.789Z,2.17
2023-03-31T15:40:57.864Z,1.77
2023-03-31T15:43:30.323Z,1.90
2023-03-31T15:45:59.039Z,1.60
2023-03-31T15:48:33.372Z,2.00
2023-03-31T15:51:06.698Z,1.30
2023-03-31T15:53:38.204Z,1.83
2023-03-31T15:56:07.508Z,1.60
2023-03-31T15:58:55.463Z,1.37
2023-03-31T16:01:25.081Z,1.40
2023-03-31T16:03:54.215Z,1.47
2023-03-31T16:06:46.500Z,1.53
2023-03-31T16:09:41.151Z,1.30
2023-03-31T16:12:31.579Z,1.20
2023-03-31T16:15:24.033Z,1.33
2023-03-31T16:18:16.768Z,1.20
2023-03-31T16:21:08.531Z,1.30
2023-03-31T16:24:00.373Z,1.20
2023-03-31T16:26:49.371Z,1.40
2023-03-31T16:29:38.758Z,1.27
2023-03-31T16:32:27.226Z,1.00
2023-03-31T16:35:15.864Z,1.20
2023-03-31T16:37:44.252Z,1.33
2023-03-31T16:40:14.376Z,1.63
2023-03-31T16:42:42.603Z,1.63
2023-03-31T16:45:14.672Z,1.30
2023-03-31T16:47:45.594Z,1.23
2023-03-31T16:50:15.653Z,1.47
2023-03-31T16:52:44.217Z,1.97
2023-03-31T16:55:13.809Z,1.60
2023-03-31T16:57:42.018Z,2.00
2023-03-31T17:00:11.840Z,1.50
2023-03-31T17:02:40.084Z,1.50
2023-03-31T17:05:13.225Z,2.50
2023-03-31T17:07:41.762Z,2.10
2023-03-31T17:10:10.521Z,2.30
2023-03-31T17:12:40.091Z,2.37
2023-03-31T17:15:09.694Z,2.20
2023-03-31T17:17:38.020Z,1.50
2023-03-31T17:20:08.006Z,1.40
2023-03-31T17:22:36.804Z,1.63
2023-03-31T17:25:05.843Z,1.53
2023-03-31T17:27:34.079Z,1.40
2023-03-31T17:32:38.349Z,1.50
2023-03-31T17:35:07.698Z,1.33
2023-03-31T17:37:35.961Z,1.23
2023-03-31T17:40:05.999Z,1.50
2023-03-31T17:42:34.149Z,1.30
2023-03-31T17:45:03.751Z,1.57
2023-03-31T17:47:33.061Z,1.67
2023-03-31T17:50:01.354Z,2.07
2023-03-31T17:52:29.620Z,1.87
2023-03-31T17:54:58.595Z,1.67
2023-03-31T17:57:27.385Z,1.60
2023-03-31T17:59:56.901Z,1.80
2023-03-31T18:02:27.263Z,2.27
2023-03-31T18:04:55.597Z,1.70
2023-03-31T18:07:23.905Z,1.43
2023-03-31T18:09:52.232Z,1.67
2023-03-31T18:12:20.569Z,1.83
2023-03-31T18:14:48.832Z,1.50
2023-03-31T18:17:17.197Z,2.23
2023-03-31T18:19:47.401Z,2.20
2023-03-31T18:22:15.804Z,2.63
2023-03-31T18:24:44.440Z,2.20
2023-03-31T18:27:12.698Z,2.03
2023-03-31T18:29:41.170Z,2.50
2023-03-31T18:32:12.379Z,1.70
2023-03-31T18:34:40.775Z,2.23
2023-03-31T18:37:10.625Z,1.90
2023-03-31T18:39:39.097Z,1.80
2023-03-31T18:42:07.611Z,2.03
2023-03-31T18:44:36.183Z,2.10
2023-03-31T18:47:04.564Z,1.70
2023-03-31T18:49:32.890Z,1.70
2023-03-31T18:52:02.470Z,1.67
2023-03-31T18:54:32.250Z,1.67
2023-03-31T18:57:01.484Z,2.20
2023-03-31T18:59:29.854Z,1.87
2023-03-31T19:01:58.140Z,1.87
2023-03-31T19:04:26.942Z,2.13
2023-03-31T19:06:56.441Z,1.80
2023-03-31T19:09:27.274Z,1.83
2023-03-31T19:11:57.502Z,2.10
2023-03-31T19:14:25.724Z,1.70
2023-03-31T19:16:55.681Z,1.80
2023-03-31T19:19:24.368Z,1.90
2023-03-31T19:21:52.792Z,1.73
2023-03-31T19:24:21.195Z,1.70
2023-03-31T19:26:49.408Z,2.07
2023-03-31T19:29:19.087Z,2.37
2023-03-31T19:31:48.463Z,1.80
2023-03-31T19:34:17.820Z,2.23
2023-03-31T19:36:46.199Z,2.00
2023-03-31T19:39:14.893Z,2.30
2023-03-31T19:41:43.145Z,2.10
2023-03-31T19:44:11.342Z,2.20
2023-03-31T19:46:41.225Z,2.40
2023-03-31T19:49:09.529Z,2.57
2023-03-31T19:51:37.807Z,2.30
2023-03-31T19:54:06.176Z,1.83
2023-03-31T19:56:34.963Z,2.00
2023-03-31T19:59:03.435Z,2.27
2023-03-31T20:01:32.506Z,2.47
2023-03-31T20:04:02.243Z,2.20
2023-03-31T20:06:31.816Z,2.57
2023-03-31T20:09:18.308Z,1.90
2023-03-31T20:11:47.444Z,2.33
2023-03-31T20:14:16.278Z,2.10
2023-03-31T20:16:44.754Z,2.13
2023-03-31T20:19:16.306Z,1.83
2023-03-31T20:21:45.619Z,2.53
2023-03-31T20:24:16.525Z,2.20
2023-03-31T20:26:45.526Z,2.20
2023-03-31T20:29:13.825Z,2.37
2023-03-31T20:31:42.479Z,2.33
2023-03-31T20:34:15.183Z,1.93
2023-03-31T20:36:44.856Z,1.67
2023-03-31T20:39:14.300Z,1.90
2023-03-31T20:41:43.313Z,1.83
2023-03-31T20:44:17.394Z,2.50
2023-03-31T20:46:46.598Z,1.93
2023-03-31T20:49:16.285Z,2.37
2023-03-31T20:51:45.645Z,1.80
2023-03-31T20:54:13.912Z,1.47
2023-03-31T20:56:42.827Z,1.93
2023-03-31T20:59:29.521Z,1.80
2023-03-31T21:02:18.019Z,1.73
2023-03-31T21:05:08.629Z,1.87
2023-03-31T21:07:57.662Z,2.47
2023-03-31T21:10:47.401Z,1.80
2023-03-31T21:13:36.033Z,2.47
2023-03-31T21:16:25.363Z,2.13
2023-03-31T21:19:14.010Z,2.90
2023-03-31T21:22:03.823Z,2.07
2023-03-31T21:24:52.278Z,2.30
2023-03-31T21:27:40.910Z,2.00
2023-03-31T21:30:29.427Z,1.40
2023-03-31T21:33:18.554Z,1.93
2023-03-31T21:36:08.592Z,1.40
2023-03-31T21:38:58.468Z,1.63
2023-03-31T21:41:47.012Z,1.57
2023-03-31T21:44:35.493Z,1.60
2023-03-31T21:47:24.011Z,1.30
2023-03-31T21:50:12.886Z,1.50
2023-03-31T21:53:01.656Z,1.90
2023-03-31T21:55:53.554Z,1.00
2023-03-31T21:58:42.202Z,1.37
2023-03-31T22:01:31.361Z,1.30
2023-03-31T22:04:19.931Z,1.63
2023-03-31T22:07:08.494Z,1.40
2023-03-31T22:09:57.110Z,1.30
2023-03-31T22:12:47.210Z,1.30
2023-03-31T22:15:35.674Z,1.50
2023-03-31T22:18:24.459Z,1.60
2023-03-31T22:21:17.518Z,1.90
2023-03-31T22:24:06.563Z,1.60
2023-03-31T22:26:55.037Z,1.40
2023-03-31T22:29:45.029Z,1.27
2023-03-31T22:32:33.541Z,1.43
2023-03-31T22:35:22.152Z,1.50
2023-03-31T22:38:13.292Z,1.37
2023-03-31T22:41:01.749Z,1.57
2023-03-31T22:43:51.452Z,1.43
2023-03-31T22:46:41.528Z,2.07
2023-03-31T22:49:30.030Z,1.70
2023-03-31T22:52:18.548Z,1.30
2023-03-31T22:55:08.021Z,1.60
2023-03-31T22:57:56.881Z,1.60
2023-03-31T23:00:45.431Z,1.17
2023-03-31T23:03:35.330Z,1.80
2023-03-31T23:06:24.206Z,1.30
2023-03-31T23:09:12.695Z,1.77
2023-03-31T23:12:01.197Z,1.53
2023-03-31T23:14:49.668Z,1.10
2023-03-31T23:17:38.132Z,1.43
2023-03-31T23:20:29.143Z,1.50
2023-03-31T23:23:18.122Z,1.30
2023-03-31T23:26:07.503Z,1.30
2023-03-31T23:28:57.376Z,1.20
2023-03-31T23:31:45.962Z,1.40
2023-03-31T23:34:34.561Z,1.60
2023-03-31T23:37:24.651Z,1.73
2023-03-31T23:40:14.493Z,1.87
2023-03-31T23:43:02.999Z,1.43
2023-03-31T23:45:51.514Z,1.40
2023-03-31T23:48:40.261Z,1.30
2023-03-31T23:51:28.787Z,1.60
2023-03-31T23:54:18.608Z,2.17
2023-03-31T23:57:07.359Z,1.90
2023-03-31T23:59:56.148Z,1.30
